Airfield :
LOGIN :

Register | Disclaimer

   EN    FR    IT 

 










Legend :    VFR   Marginal VFR   IFR   Intensive IFR   Very Intensive IFR
Visi :
Ceiling :
>= 8 km
>= 3000ft
5 to 8 km
1000 to 3000 ft
1500m to 5 km
500 to 1000 ft
800 to 1500m
200 to 500 ft
< 800m
< 200 ft
Symbols :   Thunderstorms  Fog  Heavy snow  Heavy precipitations  Wind > 20 kt
SIGMETs :     Misc.  Thunderstorms  Icing  Turbulence  Mountain Waves  Volcanic Ashes






- Airport Elevation : 1789 ft
- IATA code : PRN


BKPR - Pristina

CURRENT METAR :
  • 301030Z 02006KT 340V080 9999 FEW050 13/M04 Q1014 NOSIG RMK 17010095

EXPIRED METARs :
  • 301000Z 03005KT 350V050 9999 FEW050 13/M03 Q1014 NOSIG RMK 17010095
  • 300930Z 01005KT 300V070 9999 FEW050 13/M03 Q1014 NOSIG RMK 17010095
  • 300900Z 02006KT 350V050 9999 FEW050 12/M01 Q1014 NOSIG RMK 17010095
  • 300830Z 36004KT 310V030 9999 FEW050 11/M01 Q1014 NOSIG RMK 17010095
  • 300800Z 34007KT 9999 FEW050 10/M01 Q1014 NOSIG RMK 17010095

TAF TAF BKPR
Valid from the 30 at 06:00 until the 31 at 06:00 UTC


300530Z 3006/3106 01008KT 9999 FEW040



MET'MAP, your aeronautical weather chart ! - Copyright ORBIFLY December 2007 - Disclaimer

ORBIFLY MET'MAP TEAM :

Programming & Development : Alexandra Zaïnal
Concept & original design : Baudouin d'Aumeries
Assistance for programming : Marc-Olivier Méhu
Technical & hardware support : Manuel Goepfert

Contact : metmap@orbifly.com




SOURCES & CREDITS :

   NOAA